Weather observations for the past three days for
Faith
Metric (Imperial)
Date Time (mdt) Wind (kph) Vis. (km) Weather Sky Cond. Temperature (ºC) Relative Humidity Wind Chill (°C) Heat Index (°C) Pressure Precipitation (cm)
Air Dwpt 6 hour altimeter (cm) sea level (mb) 1 hr 3 hr 6 hr
Max. Min.
08 06:56 W 20 0.00 NULL NULL 10 2.8 61% 8 75.72 1009.4
08 05:56 W 17 0.00 NULL NULL 6.1 -1.1 8.3 4.4 60% 3 75.69 1009.6
08 04:56 W 22 0.00 NULL NULL 7.2 -0.6 58% 4 75.69 1009.2
08 03:56 W 11 0.00 NULL NULL 6.1 0 65% 4 75.67 1009.2
08 02:56 NW 17 0.00 NULL NULL 4.4 0.6 77% 1 75.67 1009.5
08 01:56 NW 20 0.00 NULL NULL 6.1 1.1 71% 3 75.67 1009.3
08 00:56 SW 9 0.00 NULL NULL 6.7 -0.6 60% 5 75.69 1009.5
07 23:56 S 19 0.00 NULL NULL 7.8 -0.6 17.8 6.1 56% 5 75.69 1009.5
07 22:56 S 20 0.00 NULL NULL 7.8 -1.1 54% 5 75.69 1009.7
07 21:56 S 19 0.00 NULL NULL 9.4 0 52% 7 75.72 1010.1
07 20:56 S 17 0.00 NULL NULL 10 0 50% 8 75.72 1010.3
07 19:56 SE 7 0.00 NULL NULL 15.6 -3.3 27% 75.67 1009.3
07 18:56 W 6 0.00 NULL NULL 17.2 -1.1 29% 75.64 1009.4
07 17:56 W 9 0.00 NULL NULL 17.8 -2.8 17.8 13.3 25% 75.67 1009.9
07 16:56 NW 11 0.00 NULL NULL 17.8 -2.8 25% 75.67 1009.9
07 15:56 Calm 0.00 NULL NULL 17.8 -3.3 24% 75.69 1009.9
07 14:56 Vrbl 9 0.00 NULL NULL 16.7 -3.9 24% 75.74 1010.6
07 13:56 Vrbl 6 0.00 NULL NULL 16.1 -3.9 25% 75.79 1011.0
07 12:56 Calm 0.00 NULL NULL 15.6 -3.9 26% 75.79 1011.2
07 11:56 Vrbl 7 0.00 NULL NULL 13.9 -6.1 13.9 -2.2 25% 75.82 1011.4
07 10:56 Calm 0.00 NULL NULL 13.3 -4.4 29% 75.84 1012.3
07 09:56 NE 13 0.00 NULL NULL 11.7 -4.4 32% 75.84 1012.0
07 08:56 NE 6 0.00 NULL NULL 8.9 -3.3 42% 75.87 1012.4
07 07:56 N 6 0.00 NULL NULL 5 -2.8 57% 75.84 1012.4
07 06:56 N 7 0.00 NULL NULL 0.6 -3.9 72% -1 75.79 1012.2
07 05:56 N 9 0.00 NULL NULL -2.2 -5.6 7.8 -2.2 78% -5 75.74 1011.8
07 04:56 NE 13 0.00 NULL NULL -1.1 -5.6 72% -5 75.72 1011.2
07 03:56 NE 6 0.00 NULL NULL 1.7 -6.1 57% 75.72 1010.8
07 02:56 NE 9 0.00 NULL NULL 1.7 -6.1 57% -1 75.72 1010.8
07 01:56 S 13 0.00 NULL NULL 3.3 -7.8 44% 0 75.72 1010.9
07 00:56 S 9 0.00 NULL NULL 3.3 -7.2 46% 1 75.77 1011.6
06 23:56 S 9 0.00 NULL NULL 7.2 -7.8 12.2 1.7 34% 6 75.77 1011.2
06 22:56 S 15 0.00 NULL NULL 4.4 -5.6 49% 1 75.79 1011.9
06 21:56 SE 7 0.00 NULL NULL 8.3 -7.8 31% 7 75.82 1012.0
06 20:56 E 7 0.00 NULL NULL 8.3 -7.8 31% 7 75.84 1012.6
06 19:56 NE 6 0.00 NULL NULL 9.4 -6.7 32% 75.87 1013.0
06 18:56 W 17 0.00 NULL NULL 11.7 -6.1 28% 75.9 1013.4
06 17:56 NW 19 0.00 NULL NULL 12.2 -7.2 13.3 9.4 25% 75.92 1014.2
06 16:56 NW 11 0.00 NULL NULL 11.7 -7.8 25% 76 1015.0
06 15:56 W 30 G 39 0.00 NULL NULL 12.2 -6.7 26% 76.02 1015.6
06 14:56 NW 28 G 43 0.00 NULL NULL 12.2 -6.7 26% 76.1 1016.4
06 13:56 NW 15 G 44 0.00 NULL NULL 11.1 -7.8 26% 76.15 1017.3
06 12:56 NW 20 G 35 0.00 NULL NULL 9.4 -8.9 27% 7 76.2 1018.3
06 11:56 W 30 G 41 0.00 NULL NULL 10 -8.9 10 -2.8 26% 7 76.28 1019.0
06 10:56 NW 26 G 43 0.00 NULL NULL 9.4 -7.8 29% 6 76.3 1019.4
06 09:56 NW 22 G 48 0.00 NULL NULL 7.8 -7.2 34% 5 76.33 1019.7
06 08:56 NW 26 0.00 NULL NULL 6.1 -6.7 40% 2 76.38 1020.3
06 07:56 NW 22 0.00 NULL NULL 3.9 -6.1 48% -0 76.38 1020.4
06 06:56 NW 20 0.00 NULL NULL 0 -6.7 61% -5 76.35 1020.4
06 05:56 W 20 0.00 NULL NULL -2.8 -7.2 -1.1 -3.9 72% -8 76.33 1020.1
06 04:56 W 19 0.00 NULL NULL -3.3 -7.2 75% -9 76.33 1020.1
06 03:56 W 17 0.00 NULL NULL -3.3 -7.8 71% -8 76.3 1019.6
06 02:56 W 19 0.00 NULL NULL -2.2 -7.2 69% -7 76.3 1019.7
06 01:56 W 15 0.00 NULL NULL -2.8 -6.7 75% -7 76.28 1019.5
06 00:56 W 13 0.00 NULL NULL -2.8 -6.7 75% -7 76.3 1020.0
05 23:56 W 7 0.00 NULL NULL -1.7 -6.7 7.8 -1.7 69% -4 76.3 1019.7
05 22:56 NW 6 0.00 NULL NULL -0.6 -6.1 67% 76.28 1019.4
05 21:56 N 9 0.00 NULL NULL 1.7 -6.7 54% -1 76.28 1018.9
05 20:56 N 11 0.00 NULL NULL 1.7 -7.2 52% -1 76.23 1018.6
05 19:56 N 15 0.00 NULL NULL 4.4 -7.2 43% 1 76.17 1017.7
05 18:56 N 26 0.00 NULL NULL 6.1 -7.8 37% 2 76.12 1017.2
05 17:56 N 28 G 43 0.00 NULL NULL 7.8 -8.3 9.4 5.6 31% 4 76.07 1016.7
05 16:56 N 31 G 46 0.00 NULL NULL 7.8 -7.2 34% 4 76.05 1016.5
05 15:56 N 28 G 46 0.00 NULL NULL 9.4 -6.1 33% 6 76.05 1016.2
05 14:56 N 28 G 48 0.00 NULL NULL 7.8 -5.6 38% 4 76.07 1016.6
05 13:56 NW 37 G 48 0.00 Breezy NULL 7.2 -5.6 40% 3 76.12 1017.1
05 12:56 NW 24 G 39 0.00 NULL NULL 6.1 -6.7 40% 2 76.12 1017.0
05 11:56 NW 24 0.00 NULL NULL 6.1 -6.7 6.7 -2.2 40% 2 76.12 1017.0
05 10:56 N 22 0.00 NULL NULL 5.6 -6.1 43% 2 76.12 1016.9
05 09:56 NW 24 G 46 0.00 NULL NULL 5.6 -5.6 45% 2 76.12 1017.0
05 08:56 NW 22 0.00 NULL NULL 5 -5.6 47% 1 76.15 1017.0
05 07:56 NW 17 0.00 NULL NULL 2.2 -3.9 64% -2 76.15 1017.2
Date Time (mdt) Wind (kph) Vis. (km) Weather Sky Cond. Air Dwpt Max. Min. Relative Humidity Wind Chill (°C) Heat Index (°C) altimeter (cm) sea level (mb) 1 hr 3 hr 6 hr
6 hour
Temperature (ºC) Pressure Precipitation (cm)